Other Surface Observations
Issued by NWS Missoula, MT

Home | Current Version | Previous Version | Text Only | Print | Product List | Glossary On
Versions: 1 2 3 4 5 6 7 8 9 10 11 12 13 14 15 16 17 18 19 20 21 22 23 24 25 26 27 28 29 30 31 32 33 34 35 36 37 38 39 40 41 42 43 44 45 46 47 48 49 50
000
SXUS55 KMSO 021453
OSOMSO
MONTANA AWOS SUMMARY
NATIONAL WEATHER SERVICE MISSOULA MT
852 AM MDT SUN AUG 2 2015

Montana AWOS Reports

ROUNDUP     |KRPX 021435Z AUTO 01009G15KT 40SM 19/08 A2997 RMK AO1 T01940083




USA.gov is the U.S. government's official web portal to all federal, state and local government web resources and services.